sensor_id;sensor_type;location;lat;lon;timestamp;pressure;altitude;pressure_sealevel;temperature;humidity
36788;BME280;22738;45.560;9.434;2023-02-04T00:05:37;100258.34;;;9.55;100.00
36788;BME280;22738;45.560;9.434;2023-02-04T00:12:18;100265.69;;;9.47;100.00
36788;BME280;22738;45.560;9.434;2023-02-04T00:18:59;100264.88;;;9.29;100.00
36788;BME280;22738;45.560;9.434;2023-02-04T00:25:40;100262.41;;;9.11;100.00
36788;BME280;22738;45.560;9.434;2023-02-04T00:32:22;100248.88;;;9.06;100.00
36788;BME280;22738;45.560;9.434;2023-02-04T00:39:03;100237.78;;;9.04;100.00
36788;BME280;22738;45.560;9.434;2023-02-04T00:45:44;100222.75;;;8.95;100.00
36788;BME280;22738;45.560;9.434;2023-02-04T00:52:25;100224.88;;;8.87;100.00
36788;BME280;22738;45.560;9.434;2023-02-04T00:59:06;100188.44;;;8.91;100.00
36788;BME280;22738;45.560;9.434;2023-02-04T01:05:48;100176.69;;;8.86;100.00
36788;BME280;22738;45.560;9.434;2023-02-04T01:12:29;100165.94;;;8.93;100.00
36788;BME280;22738;45.560;9.434;2023-02-04T01:19:10;100146.28;;;9.06;100.00
36788;BME280;22738;45.560;9.434;2023-02-04T01:25:51;100133.72;;;9.31;100.00
36788;BME280;22738;45.560;9.434;2023-02-04T01:32:33;100128.72;;;9.75;100.00
36788;BME280;22738;45.560;9.434;2023-02-04T01:39:14;100114.72;;;9.93;100.00
36788;BME280;22738;45.560;9.434;2023-02-04T01:45:55;100136.38;;;9.92;100.00
36788;BME280;22738;45.560;9.434;2023-02-04T01:52:37;100130.78;;;9.84;100.00
36788;BME280;22738;45.560;9.434;2023-02-04T01:59:20;100125.59;;;9.84;100.00
36788;BME280;22738;45.560;9.434;2023-02-04T02:06:02;100110.50;;;9.92;100.00
36788;BME280;22738;45.560;9.434;2023-02-04T02:12:44;100116.09;;;9.85;100.00
36788;BME280;22738;45.560;9.434;2023-02-04T02:19:28;100087.88;;;9.80;100.00
36788;BME280;22738;45.560;9.434;2023-02-04T02:26:13;100085.81;;;9.71;100.00
36788;BME280;22738;45.560;9.434;2023-02-04T02:32:55;100080.56;;;9.57;100.00
36788;BME280;22738;45.560;9.434;2023-02-04T02:39:38;100082.06;;;9.61;100.00
36788;BME280;22738;45.560;9.434;2023-02-04T02:46:20;100080.03;;;9.66;100.00
36788;BME280;22738;45.560;9.434;2023-02-04T02:53:02;100049.38;;;9.45;100.00
36788;BME280;22738;45.560;9.434;2023-02-04T02:59:46;100055.97;;;9.19;100.00
36788;BME280;22738;45.560;9.434;2023-02-04T03:06:28;100029.88;;;9.08;100.00
36788;BME280;22738;45.560;9.434;2023-02-04T03:13:10;100042.22;;;9.03;100.00
36788;BME280;22738;45.560;9.434;2023-02-04T03:19:52;100032.50;;;8.91;100.00
36788;BME280;22738;45.560;9.434;2023-02-04T03:26:33;100044.03;;;8.85;100.00
36788;BME280;22738;45.560;9.434;2023-02-04T03:33:14;100034.44;;;8.72;100.00
36788;BME280;22738;45.560;9.434;2023-02-04T03:39:55;100026.75;;;8.70;100.00
36788;BME280;22738;45.560;9.434;2023-02-04T03:46:36;100039.00;;;8.67;100.00
36788;BME280;22738;45.560;9.434;2023-02-04T03:53:17;100040.09;;;8.63;100.00
36788;BME280;22738;45.560;9.434;2023-02-04T03:59:58;100037.97;;;8.53;100.00
36788;BME280;22738;45.560;9.434;2023-02-04T04:06:39;100025.34;;;8.65;100.00
36788;BME280;22738;45.560;9.434;2023-02-04T04:13:21;100026.19;;;8.81;100.00
36788;BME280;22738;45.560;9.434;2023-02-04T04:20:02;100035.78;;;8.79;100.00
36788;BME280;22738;45.560;9.434;2023-02-04T04:26:43;100048.34;;;8.69;100.00
36788;BME280;22738;45.560;9.434;2023-02-04T04:33:24;100037.00;;;8.72;100.00
36788;BME280;22738;45.560;9.434;2023-02-04T04:40:06;100034.44;;;8.72;100.00
36788;BME280;22738;45.560;9.434;2023-02-04T04:46:47;100025.44;;;8.79;100.00
36788;BME280;22738;45.560;9.434;2023-02-04T04:53:28;100032.09;;;8.67;100.00
36788;BME280;22738;45.560;9.434;2023-02-04T05:00:16;100039.91;;;8.66;100.00
36788;BME280;22738;45.560;9.434;2023-02-04T05:06:57;100030.84;;;8.58;100.00
36788;BME280;22738;45.560;9.434;2023-02-04T05:13:38;100041.47;;;8.52;100.00
36788;BME280;22738;45.560;9.434;2023-02-04T05:20:19;100038.59;;;8.41;100.00
36788;BME280;22738;45.560;9.434;2023-02-04T05:27:00;100030.72;;;8.27;100.00
36788;BME280;22738;45.560;9.434;2023-02-04T05:33:41;100034.44;;;8.22;100.00
36788;BME280;22738;45.560;9.434;2023-02-04T05:40:22;100048.56;;;8.15;100.00
36788;BME280;22738;45.560;9.434;2023-02-04T05:47:03;100037.84;;;8.05;100.00
36788;BME280;22738;45.560;9.434;2023-02-04T05:53:44;100054.03;;;8.09;100.00
36788;BME280;22738;45.560;9.434;2023-02-04T06:00:25;100039.31;;;8.11;100.00
36788;BME280;22738;45.560;9.434;2023-02-04T06:07:06;100039.06;;;8.32;100.00
36788;BME280;22738;45.560;9.434;2023-02-04T06:13:48;100044.00;;;8.70;100.00
36788;BME280;22738;45.560;9.434;2023-02-04T06:20:29;100023.50;;;9.13;100.00
36788;BME280;22738;45.560;9.434;2023-02-04T06:27:10;100026.91;;;9.45;100.00
36788;BME280;22738;45.560;9.434;2023-02-04T06:33:51;100036.00;;;9.52;100.00
36788;BME280;22738;45.560;9.434;2023-02-04T06:40:32;100044.34;;;9.57;100.00
36788;BME280;22738;45.560;9.434;2023-02-04T06:47:13;100057.78;;;9.48;100.00
36788;BME280;22738;45.560;9.434;2023-02-04T06:53:54;100057.03;;;9.46;100.00
36788;BME280;22738;45.560;9.434;2023-02-04T07:00:35;100073.75;;;9.56;100.00
36788;BME280;22738;45.560;9.434;2023-02-04T07:07:16;100053.13;;;9.84;100.00
36788;BME280;22738;45.560;9.434;2023-02-04T07:13:57;100053.13;;;10.14;100.00
36788;BME280;22738;45.560;9.434;2023-02-04T07:20:38;100059.53;;;10.23;100.00
36788;BME280;22738;45.560;9.434;2023-02-04T07:27:19;100070.91;;;10.20;100.00
36788;BME280;22738;45.560;9.434;2023-02-04T07:34:00;100078.81;;;10.33;100.00
36788;BME280;22738;45.560;9.434;2023-02-04T07:40:41;100116.06;;;10.60;100.00
36788;BME280;22738;45.560;9.434;2023-02-04T07:47:22;100111.97;;;9.51;100.00
36788;BME280;22738;45.560;9.434;2023-02-04T07:54:03;100107.81;;;8.85;100.00
36788;BME280;22738;45.560;9.434;2023-02-04T08:00:44;100095.41;;;9.07;100.00
36788;BME280;22738;45.560;9.434;2023-02-04T08:07:26;100109.63;;;9.31;100.00
36788;BME280;22738;45.560;9.434;2023-02-04T08:14:07;100105.84;;;13.93;100.00
36788;BME280;22738;45.560;9.434;2023-02-04T08:20:48;100125.91;;;19.09;59.54
36788;BME280;22738;45.560;9.434;2023-02-04T08:27:29;100147.53;;;21.90;44.80
36788;BME280;22738;45.560;9.434;2023-02-04T08:34:10;100158.94;;;19.75;52.20
36788;BME280;22738;45.560;9.434;2023-02-04T08:40:51;100160.28;;;19.79;50.53
36788;BME280;22738;45.560;9.434;2023-02-04T08:47:32;100172.66;;;19.97;54.05
36788;BME280;22738;45.560;9.434;2023-02-04T08:54:13;100163.53;;;21.47;47.15
36788;BME280;22738;45.560;9.434;2023-02-04T09:00:54;100166.06;;;22.22;46.09
36788;BME280;22738;45.560;9.434;2023-02-04T09:07:42;100165.81;;;20.82;50.98
36788;BME280;22738;45.560;9.434;2023-02-04T09:14:23;100180.00;;;17.68;69.03
36788;BME280;22738;45.560;9.434;2023-02-04T09:21:04;100175.34;;;15.97;94.42
36788;BME280;22738;45.560;9.434;2023-02-04T09:27:47;100179.38;;;14.79;100.00
36788;BME280;22738;45.560;9.434;2023-02-04T09:34:28;100198.41;;;14.81;100.00
36788;BME280;22738;45.560;9.434;2023-02-04T09:41:10;100198.91;;;15.08;100.00
36788;BME280;22738;45.560;9.434;2023-02-04T09:47:53;100218.66;;;14.77;100.00
36788;BME280;22738;45.560;9.434;2023-02-04T09:54:35;100219.84;;;14.02;100.00
36788;BME280;22738;45.560;9.434;2023-02-04T10:01:18;100243.94;;;13.57;100.00
36788;BME280;22738;45.560;9.434;2023-02-04T10:08:00;100243.69;;;13.85;100.00
36788;BME280;22738;45.560;9.434;2023-02-04T10:14:41;100241.72;;;14.12;100.00
36788;BME280;22738;45.560;9.434;2023-02-04T10:21:28;100253.16;;;14.22;100.00
36788;BME280;22738;45.560;9.434;2023-02-04T10:28:09;100246.94;;;14.12;100.00
36788;BME280;22738;45.560;9.434;2023-02-04T10:34:56;100259.03;;;14.13;100.00
36788;BME280;22738;45.560;9.434;2023-02-04T10:41:47;100247.59;;;14.27;100.00
36788;BME280;22738;45.560;9.434;2023-02-04T10:48:29;100240.28;;;14.45;100.00
36788;BME280;22738;45.560;9.434;2023-02-04T10:55:21;100248.16;;;14.19;100.00
36788;BME280;22738;45.560;9.434;2023-02-04T11:09:21;100247.66;;;14.62;100.00
36788;BME280;22738;45.560;9.434;2023-02-04T11:16:24;100237.28;;;14.73;100.00
36788;BME280;22738;45.560;9.434;2023-02-04T11:30:19;100234.47;;;14.87;100.00
36788;BME280;22738;45.560;9.434;2023-02-04T11:37:05;100230.66;;;14.91;100.00
36788;BME280;22738;45.560;9.434;2023-02-04T11:43:52;100232.34;;;14.92;100.00
36788;BME280;22738;45.560;9.434;2023-02-04T11:50:35;100215.75;;;15.04;100.00
36788;BME280;22738;45.560;9.434;2023-02-04T11:57:18;100231.19;;;15.07;100.00
36788;BME280;22738;45.560;9.434;2023-02-04T12:04:02;100211.28;;;15.39;100.00
36788;BME280;22738;45.560;9.434;2023-02-04T12:10:57;100220.38;;;16.32;100.00
36788;BME280;22738;45.560;9.434;2023-02-04T12:17:43;100196.00;;;16.00;100.00
36788;BME280;22738;45.560;9.434;2023-02-04T12:24:24;100204.31;;;16.05;100.00
36788;BME280;22738;45.560;9.434;2023-02-04T12:31:05;100192.13;;;17.59;46.91
36788;BME280;22738;45.560;9.434;2023-02-04T12:37:46;100185.06;;;18.47;42.47
36788;BME280;22738;45.560;9.434;2023-02-04T12:44:27;100174.88;;;19.10;37.09
36788;BME280;22738;45.560;9.434;2023-02-04T12:51:08;100168.56;;;19.30;36.30
36788;BME280;22738;45.560;9.434;2023-02-04T12:57:51;100160.72;;;19.57;34.76
36788;BME280;22738;45.560;9.434;2023-02-04T13:04:33;100166.22;;;19.64;34.81
36788;BME280;22738;45.560;9.434;2023-02-04T13:11:14;100147.94;;;19.62;33.73
36788;BME280;22738;45.560;9.434;2023-02-04T13:17:55;100145.50;;;19.78;32.56
36788;BME280;22738;45.560;9.434;2023-02-04T13:24:36;100158.66;;;19.78;32.50
36788;BME280;22738;45.560;9.434;2023-02-04T13:31:18;100142.56;;;19.81;32.12
36788;BME280;22738;45.560;9.434;2023-02-04T13:37:59;100154.41;;;19.85;31.16
36788;BME280;22738;45.560;9.434;2023-02-04T13:44:40;100156.59;;;19.90;30.67
36788;BME280;22738;45.560;9.434;2023-02-04T13:51:22;100163.38;;;19.92;29.18
36788;BME280;22738;45.560;9.434;2023-02-04T13:58:03;100174.00;;;19.83;29.55
36788;BME280;22738;45.560;9.434;2023-02-04T14:04:45;100181.53;;;19.68;30.94
36788;BME280;22738;45.560;9.434;2023-02-04T14:11:26;100179.19;;;19.65;29.81
36788;BME280;22738;45.560;9.434;2023-02-04T14:18:08;100188.47;;;19.69;28.92
36788;BME280;22738;45.560;9.434;2023-02-04T14:24:49;100198.69;;;19.72;27.54
36788;BME280;22738;45.560;9.434;2023-02-04T14:31:30;100206.78;;;19.61;27.81
36788;BME280;22738;45.560;9.434;2023-02-04T14:38:12;100219.94;;;19.61;26.50
36788;BME280;22738;45.560;9.434;2023-02-04T14:44:55;100235.06;;;19.50;27.90
36788;BME280;22738;45.560;9.434;2023-02-04T14:51:36;100254.38;;;19.21;28.71
36788;BME280;22738;45.560;9.434;2023-02-04T14:58:18;100250.00;;;19.03;28.68
36788;BME280;22738;45.560;9.434;2023-02-04T15:04:59;100267.97;;;18.98;27.39
36788;BME280;22738;45.560;9.434;2023-02-04T15:11:40;100283.72;;;18.98;27.68
36788;BME280;22738;45.560;9.434;2023-02-04T15:18:21;100287.88;;;18.91;26.31
36788;BME280;22738;45.560;9.434;2023-02-04T15:25:03;100301.44;;;18.58;27.23
36788;BME280;22738;45.560;9.434;2023-02-04T15:31:44;100315.19;;;18.40;26.91
36788;BME280;22738;45.560;9.434;2023-02-04T15:38:27;100328.47;;;18.39;26.32
36788;BME280;22738;45.560;9.434;2023-02-04T15:45:08;100336.97;;;18.22;27.20
36788;BME280;22738;45.560;9.434;2023-02-04T15:51:49;100355.34;;;17.82;44.51
36788;BME280;22738;45.560;9.434;2023-02-04T15:58:32;100374.97;;;17.46;55.25
36788;BME280;22738;45.560;9.434;2023-02-04T16:05:13;100386.31;;;16.83;80.98
36788;BME280;22738;45.560;9.434;2023-02-04T16:11:54;100388.50;;;16.78;42.78
36788;BME280;22738;45.560;9.434;2023-02-04T16:18:35;100395.91;;;16.62;41.75
36788;BME280;22738;45.560;9.434;2023-02-04T16:25:16;100410.91;;;16.16;79.74
36788;BME280;22738;45.560;9.434;2023-02-04T16:31:58;100414.44;;;15.70;60.52
36788;BME280;22738;45.560;9.434;2023-02-04T16:38:40;100435.72;;;15.88;41.77
36788;BME280;22738;45.560;9.434;2023-02-04T16:45:23;100455.63;;;16.24;34.16
36788;BME280;22738;45.560;9.434;2023-02-04T16:52:04;100463.94;;;16.29;30.82
36788;BME280;22738;45.560;9.434;2023-02-04T16:58:45;100479.97;;;16.24;29.18
36788;BME280;22738;45.560;9.434;2023-02-04T17:05:26;100487.47;;;16.18;28.85
36788;BME280;22738;45.560;9.434;2023-02-04T17:12:08;100498.63;;;16.09;28.81
36788;BME280;22738;45.560;9.434;2023-02-04T17:18:48;100501.44;;;15.95;28.52
36788;BME280;22738;45.560;9.434;2023-02-04T17:25:31;100502.88;;;15.88;28.06
36788;BME280;22738;45.560;9.434;2023-02-04T17:32:12;100516.34;;;15.70;28.10
36788;BME280;22738;45.560;9.434;2023-02-04T17:38:53;100519.69;;;15.73;28.21
36788;BME280;22738;45.560;9.434;2023-02-04T17:45:34;100525.34;;;15.55;27.91
36788;BME280;22738;45.560;9.434;2023-02-04T17:52:15;100522.81;;;15.54;27.84
36788;BME280;22738;45.560;9.434;2023-02-04T17:58:56;100545.94;;;15.47;27.74
36788;BME280;22738;45.560;9.434;2023-02-04T18:05:41;100547.09;;;15.43;27.50
36788;BME280;22738;45.560;9.434;2023-02-04T18:12:23;100563.69;;;15.19;28.00
36788;BME280;22738;45.560;9.434;2023-02-04T18:19:18;100639.97;;;15.11;29.36
36788;BME280;22738;45.560;9.434;2023-02-04T18:26:08;100673.53;;;13.74;99.11
36788;BME280;22738;45.560;9.434;2023-02-04T18:32:51;100714.97;;;13.08;100.00
36788;BME280;22738;45.560;9.434;2023-02-04T18:39:34;100752.13;;;12.21;100.00
36788;BME280;22738;45.560;9.434;2023-02-04T18:46:23;100778.28;;;12.02;100.00
36788;BME280;22738;45.560;9.434;2023-02-04T18:59:56;100831.59;;;10.58;100.00
36788;BME280;22738;45.560;9.434;2023-02-04T19:06:42;100849.19;;;10.33;100.00
36788;BME280;22738;45.560;9.434;2023-02-04T19:20:20;100896.81;;;10.12;100.00
36788;BME280;22738;45.560;9.434;2023-02-04T19:27:22;100911.13;;;9.80;100.00
36788;BME280;22738;45.560;9.434;2023-02-04T19:34:27;100915.16;;;9.67;100.00
36788;BME280;22738;45.560;9.434;2023-02-04T20:15:54;100998.72;;;8.39;100.00
36788;BME280;22738;45.560;9.434;2023-02-04T20:22:48;101010.06;;;8.35;100.00
36788;BME280;22738;45.560;9.434;2023-02-04T20:29:32;101026.03;;;8.46;100.00
36788;BME280;22738;45.560;9.434;2023-02-04T20:42:59;101042.50;;;8.18;100.00
36788;BME280;22738;45.560;9.434;2023-02-04T20:49:41;101043.25;;;8.21;100.00
36788;BME280;22738;45.560;9.434;2023-02-04T20:56:31;101051.78;;;8.48;100.00
36788;BME280;22738;45.560;9.434;2023-02-04T21:09:57;101073.16;;;8.76;100.00
36788;BME280;22738;45.560;9.434;2023-02-04T21:16:39;101088.28;;;8.87;100.00
36788;BME280;22738;45.560;9.434;2023-02-04T21:23:20;101087.94;;;8.96;100.00
36788;BME280;22738;45.560;9.434;2023-02-04T21:30:01;101095.59;;;8.99;100.00
36788;BME280;22738;45.560;9.434;2023-02-04T21:36:42;101093.22;;;9.16;100.00
36788;BME280;22738;45.560;9.434;2023-02-04T21:43:23;101116.91;;;9.27;100.00
36788;BME280;22738;45.560;9.434;2023-02-04T21:50:04;101117.38;;;9.60;100.00
36788;BME280;22738;45.560;9.434;2023-02-04T21:56:45;101129.63;;;9.56;100.00
36788;BME280;22738;45.560;9.434;2023-02-04T22:03:27;101133.69;;;9.40;100.00
36788;BME280;22738;45.560;9.434;2023-02-04T22:10:12;101138.88;;;9.40;100.00
36788;BME280;22738;45.560;9.434;2023-02-04T22:16:53;101148.66;;;9.32;100.00
36788;BME280;22738;45.560;9.434;2023-02-04T22:23:34;101143.28;;;9.15;100.00
36788;BME280;22738;45.560;9.434;2023-02-04T22:30:16;101154.16;;;9.00;100.00
36788;BME280;22738;45.560;9.434;2023-02-04T22:36:57;101172.66;;;8.89;100.00
36788;BME280;22738;45.560;9.434;2023-02-04T22:43:38;101179.41;;;8.93;100.00
36788;BME280;22738;45.560;9.434;2023-02-04T22:50:19;101186.88;;;9.01;100.00
36788;BME280;22738;45.560;9.434;2023-02-04T22:57:00;101178.53;;;8.93;100.00
36788;BME280;22738;45.560;9.434;2023-02-04T23:03:41;101190.81;;;8.88;100.00
36788;BME280;22738;45.560;9.434;2023-02-04T23:10:22;101206.41;;;8.85;100.00
36788;BME280;22738;45.560;9.434;2023-02-04T23:17:03;101218.34;;;8.64;100.00
36788;BME280;22738;45.560;9.434;2023-02-04T23:23:45;101209.66;;;8.40;100.00
36788;BME280;22738;45.560;9.434;2023-02-04T23:30:26;101218.69;;;8.27;100.00
36788;BME280;22738;45.560;9.434;2023-02-04T23:37:07;101211.69;;;8.03;100.00
36788;BME280;22738;45.560;9.434;2023-02-04T23:43:48;101204.94;;;7.99;100.00
36788;BME280;22738;45.560;9.434;2023-02-04T23:50:29;101200.94;;;7.89;100.00
36788;BME280;22738;45.560;9.434;2023-02-04T23:57:10;101209.56;;;7.60;100.00
